sensor_id;sensor_type;location;lat;lon;timestamp;temperature;humidity
55064;DHT22;40963;52.168;21.296;2023-09-30T00:00:44;16.40;99.90
55064;DHT22;40963;52.168;21.296;2023-09-30T00:03:09;16.40;99.90
55064;DHT22;40963;52.168;21.296;2023-09-30T00:05:37;16.40;99.90
55064;DHT22;40963;52.168;21.296;2023-09-30T00:08:04;16.40;99.90
55064;DHT22;40963;52.168;21.296;2023-09-30T00:10:29;16.40;99.90
55064;DHT22;40963;52.168;21.296;2023-09-30T00:12:56;16.40;99.90
55064;DHT22;40963;52.168;21.296;2023-09-30T00:15:22;16.40;99.90
55064;DHT22;40963;52.168;21.296;2023-09-30T00:17:47;16.40;99.90
55064;DHT22;40963;52.168;21.296;2023-09-30T00:20:13;16.40;99.90
55064;DHT22;40963;52.168;21.296;2023-09-30T00:22:40;16.40;99.90
55064;DHT22;40963;52.168;21.296;2023-09-30T00:25:07;16.40;99.90
55064;DHT22;40963;52.168;21.296;2023-09-30T00:27:32;16.40;99.90
55064;DHT22;40963;52.168;21.296;2023-09-30T00:29:58;16.40;99.90
55064;DHT22;40963;52.168;21.296;2023-09-30T00:32:24;16.40;99.90
55064;DHT22;40963;52.168;21.296;2023-09-30T00:34:49;16.40;99.90
55064;DHT22;40963;52.168;21.296;2023-09-30T00:37:17;16.40;99.90
55064;DHT22;40963;52.168;21.296;2023-09-30T00:39:43;16.40;99.90
55064;DHT22;40963;52.168;21.296;2023-09-30T00:42:10;16.40;99.90
55064;DHT22;40963;52.168;21.296;2023-09-30T00:44:35;16.40;99.90
55064;DHT22;40963;52.168;21.296;2023-09-30T00:47:01;16.40;99.90
55064;DHT22;40963;52.168;21.296;2023-09-30T00:49:28;16.40;99.90
55064;DHT22;40963;52.168;21.296;2023-09-30T00:51:55;16.50;99.90
55064;DHT22;40963;52.168;21.296;2023-09-30T00:54:21;16.40;99.90
55064;DHT22;40963;52.168;21.296;2023-09-30T00:56:50;16.50;99.90
55064;DHT22;40963;52.168;21.296;2023-09-30T00:59:17;16.40;99.90
55064;DHT22;40963;52.168;21.296;2023-09-30T01:01:44;16.40;99.90
55064;DHT22;40963;52.168;21.296;2023-09-30T01:04:11;16.40;99.90
55064;DHT22;40963;52.168;21.296;2023-09-30T01:06:37;16.40;99.90
55064;DHT22;40963;52.168;21.296;2023-09-30T01:09:03;16.40;99.90
55064;DHT22;40963;52.168;21.296;2023-09-30T01:11:29;16.40;99.90
55064;DHT22;40963;52.168;21.296;2023-09-30T01:13:55;16.40;99.90
55064;DHT22;40963;52.168;21.296;2023-09-30T01:16:21;16.40;99.90
55064;DHT22;40963;52.168;21.296;2023-09-30T01:18:46;16.40;99.90
55064;DHT22;40963;52.168;21.296;2023-09-30T01:21:12;16.40;99.90
55064;DHT22;40963;52.168;21.296;2023-09-30T01:23:38;16.40;99.90
55064;DHT22;40963;52.168;21.296;2023-09-30T01:26:11;16.40;99.90
55064;DHT22;40963;52.168;21.296;2023-09-30T01:28:38;16.40;99.90
55064;DHT22;40963;52.168;21.296;2023-09-30T01:31:04;16.40;99.90
55064;DHT22;40963;52.168;21.296;2023-09-30T01:33:30;16.40;99.90
55064;DHT22;40963;52.168;21.296;2023-09-30T01:35:57;16.40;99.90
55064;DHT22;40963;52.168;21.296;2023-09-30T01:38:22;16.40;99.90
55064;DHT22;40963;52.168;21.296;2023-09-30T01:40:48;16.40;99.90
55064;DHT22;40963;52.168;21.296;2023-09-30T01:43:14;16.40;99.90
55064;DHT22;40963;52.168;21.296;2023-09-30T01:45:40;16.30;99.90
55064;DHT22;40963;52.168;21.296;2023-09-30T01:48:06;16.40;99.90
55064;DHT22;40963;52.168;21.296;2023-09-30T01:50:32;16.40;99.90
55064;DHT22;40963;52.168;21.296;2023-09-30T01:52:58;16.40;99.90
55064;DHT22;40963;52.168;21.296;2023-09-30T01:55:23;16.40;99.90
55064;DHT22;40963;52.168;21.296;2023-09-30T01:57:49;16.40;99.90
55064;DHT22;40963;52.168;21.296;2023-09-30T02:00:15;16.40;99.90
55064;DHT22;40963;52.168;21.296;2023-09-30T02:02:40;16.40;99.90
55064;DHT22;40963;52.168;21.296;2023-09-30T02:05:07;16.40;99.90
55064;DHT22;40963;52.168;21.296;2023-09-30T02:07:34;16.40;99.90
55064;DHT22;40963;52.168;21.296;2023-09-30T02:10:00;16.40;99.90
55064;DHT22;40963;52.168;21.296;2023-09-30T02:12:27;16.40;99.90
55064;DHT22;40963;52.168;21.296;2023-09-30T02:14:53;16.40;99.90
55064;DHT22;40963;52.168;21.296;2023-09-30T02:17:19;16.40;99.90
55064;DHT22;40963;52.168;21.296;2023-09-30T02:19:45;16.40;99.90
55064;DHT22;40963;52.168;21.296;2023-09-30T02:22:11;16.40;99.90
55064;DHT22;40963;52.168;21.296;2023-09-30T02:24:37;16.40;99.90
55064;DHT22;40963;52.168;21.296;2023-09-30T02:27:06;16.40;99.90
55064;DHT22;40963;52.168;21.296;2023-09-30T02:29:31;16.40;99.90
55064;DHT22;40963;52.168;21.296;2023-09-30T02:31:57;16.40;99.90
55064;DHT22;40963;52.168;21.296;2023-09-30T02:34:23;16.40;99.90
55064;DHT22;40963;52.168;21.296;2023-09-30T02:36:49;16.40;99.90
55064;DHT22;40963;52.168;21.296;2023-09-30T02:39:15;16.40;99.90
55064;DHT22;40963;52.168;21.296;2023-09-30T02:41:42;16.40;99.90
55064;DHT22;40963;52.168;21.296;2023-09-30T02:44:07;16.40;99.90
55064;DHT22;40963;52.168;21.296;2023-09-30T02:46:33;16.40;99.90
55064;DHT22;40963;52.168;21.296;2023-09-30T02:49:01;16.40;99.90
55064;DHT22;40963;52.168;21.296;2023-09-30T02:51:26;16.40;99.90
55064;DHT22;40963;52.168;21.296;2023-09-30T02:53:52;16.40;99.90
55064;DHT22;40963;52.168;21.296;2023-09-30T02:56:18;16.40;99.90
55064;DHT22;40963;52.168;21.296;2023-09-30T02:58:45;16.40;99.90
55064;DHT22;40963;52.168;21.296;2023-09-30T03:01:14;16.40;99.90
55064;DHT22;40963;52.168;21.296;2023-09-30T03:03:42;16.40;99.90
55064;DHT22;40963;52.168;21.296;2023-09-30T03:06:10;16.40;99.90
55064;DHT22;40963;52.168;21.296;2023-09-30T03:08:36;16.40;99.90
55064;DHT22;40963;52.168;21.296;2023-09-30T03:11:04;16.40;99.90
55064;DHT22;40963;52.168;21.296;2023-09-30T03:13:30;16.40;99.90
55064;DHT22;40963;52.168;21.296;2023-09-30T03:15:56;16.30;99.90
55064;DHT22;40963;52.168;21.296;2023-09-30T03:18:22;16.30;99.90
55064;DHT22;40963;52.168;21.296;2023-09-30T03:20:52;16.30;99.90
55064;DHT22;40963;52.168;21.296;2023-09-30T03:23:22;16.30;99.90
55064;DHT22;40963;52.168;21.296;2023-09-30T03:25:48;16.30;99.90
55064;DHT22;40963;52.168;21.296;2023-09-30T03:28:13;16.30;99.90
55064;DHT22;40963;52.168;21.296;2023-09-30T03:30:40;16.30;99.90
55064;DHT22;40963;52.168;21.296;2023-09-30T03:33:06;16.30;99.90
55064;DHT22;40963;52.168;21.296;2023-09-30T03:35:31;16.20;99.90
55064;DHT22;40963;52.168;21.296;2023-09-30T03:37:57;16.20;99.90
55064;DHT22;40963;52.168;21.296;2023-09-30T03:40:23;16.20;99.90
55064;DHT22;40963;52.168;21.296;2023-09-30T03:42:55;16.20;99.90
55064;DHT22;40963;52.168;21.296;2023-09-30T03:45:20;16.20;99.90
55064;DHT22;40963;52.168;21.296;2023-09-30T03:47:46;16.20;99.90
55064;DHT22;40963;52.168;21.296;2023-09-30T03:50:13;16.20;99.90
55064;DHT22;40963;52.168;21.296;2023-09-30T03:52:43;16.20;99.90
55064;DHT22;40963;52.168;21.296;2023-09-30T03:55:12;16.20;99.90
55064;DHT22;40963;52.168;21.296;2023-09-30T03:57:39;16.20;99.90
55064;DHT22;40963;52.168;21.296;2023-09-30T04:00:05;16.20;99.90
55064;DHT22;40963;52.168;21.296;2023-09-30T04:02:32;16.20;99.90
55064;DHT22;40963;52.168;21.296;2023-09-30T04:04:58;16.20;99.90
55064;DHT22;40963;52.168;21.296;2023-09-30T04:07:24;16.20;99.90
55064;DHT22;40963;52.168;21.296;2023-09-30T04:09:55;16.20;99.90
55064;DHT22;40963;52.168;21.296;2023-09-30T04:12:21;16.20;99.90
55064;DHT22;40963;52.168;21.296;2023-09-30T04:14:51;16.20;99.90
55064;DHT22;40963;52.168;21.296;2023-09-30T04:17:17;16.20;99.90
55064;DHT22;40963;52.168;21.296;2023-09-30T04:19:43;16.20;99.90
55064;DHT22;40963;52.168;21.296;2023-09-30T04:22:08;16.20;99.90
55064;DHT22;40963;52.168;21.296;2023-09-30T04:24:34;16.10;99.90
55064;DHT22;40963;52.168;21.296;2023-09-30T04:27:00;16.20;99.90
55064;DHT22;40963;52.168;21.296;2023-09-30T04:29:28;16.20;99.90
55064;DHT22;40963;52.168;21.296;2023-09-30T04:31:57;16.20;99.90
55064;DHT22;40963;52.168;21.296;2023-09-30T04:34:23;16.20;99.90
55064;DHT22;40963;52.168;21.296;2023-09-30T04:36:49;16.10;99.90
55064;DHT22;40963;52.168;21.296;2023-09-30T04:39:15;16.10;99.90
55064;DHT22;40963;52.168;21.296;2023-09-30T04:41:41;16.10;99.90
55064;DHT22;40963;52.168;21.296;2023-09-30T04:44:07;16.10;99.90
55064;DHT22;40963;52.168;21.296;2023-09-30T04:46:35;16.10;99.90
55064;DHT22;40963;52.168;21.296;2023-09-30T04:49:08;16.10;99.90
55064;DHT22;40963;52.168;21.296;2023-09-30T04:51:34;16.10;99.90
55064;DHT22;40963;52.168;21.296;2023-09-30T04:54:00;16.10;99.90
55064;DHT22;40963;52.168;21.296;2023-09-30T04:56:27;16.10;99.90
55064;DHT22;40963;52.168;21.296;2023-09-30T04:58:53;16.10;99.90
55064;DHT22;40963;52.168;21.296;2023-09-30T05:01:18;16.10;99.90
55064;DHT22;40963;52.168;21.296;2023-09-30T05:03:45;16.20;99.90
55064;DHT22;40963;52.168;21.296;2023-09-30T05:06:13;16.10;99.90
55064;DHT22;40963;52.168;21.296;2023-09-30T05:08:39;16.20;99.90
55064;DHT22;40963;52.168;21.296;2023-09-30T05:11:05;16.20;99.90
55064;DHT22;40963;52.168;21.296;2023-09-30T05:13:30;16.20;99.90
55064;DHT22;40963;52.168;21.296;2023-09-30T05:15:56;16.10;99.90
55064;DHT22;40963;52.168;21.296;2023-09-30T05:18:22;16.20;99.90
55064;DHT22;40963;52.168;21.296;2023-09-30T05:20:49;16.20;99.90
55064;DHT22;40963;52.168;21.296;2023-09-30T05:23:15;16.20;99.90
55064;DHT22;40963;52.168;21.296;2023-09-30T05:25:40;16.20;99.90
55064;DHT22;40963;52.168;21.296;2023-09-30T05:28:07;16.10;99.90
55064;DHT22;40963;52.168;21.296;2023-09-30T05:30:34;16.20;99.90
55064;DHT22;40963;52.168;21.296;2023-09-30T05:33:00;16.10;99.90
55064;DHT22;40963;52.168;21.296;2023-09-30T05:35:26;16.20;99.90
55064;DHT22;40963;52.168;21.296;2023-09-30T05:37:53;16.20;99.90
55064;DHT22;40963;52.168;21.296;2023-09-30T05:40:22;16.20;99.90
55064;DHT22;40963;52.168;21.296;2023-09-30T05:42:54;16.20;99.90
55064;DHT22;40963;52.168;21.296;2023-09-30T05:45:22;16.20;99.90
55064;DHT22;40963;52.168;21.296;2023-09-30T05:47:49;16.20;99.90
55064;DHT22;40963;52.168;21.296;2023-09-30T05:50:15;16.20;99.90
55064;DHT22;40963;52.168;21.296;2023-09-30T05:52:42;16.20;99.90
55064;DHT22;40963;52.168;21.296;2023-09-30T05:55:10;16.20;99.90
55064;DHT22;40963;52.168;21.296;2023-09-30T05:57:36;16.30;99.90
55064;DHT22;40963;52.168;21.296;2023-09-30T06:00:03;16.30;99.90
55064;DHT22;40963;52.168;21.296;2023-09-30T06:02:40;16.30;99.90
55064;DHT22;40963;52.168;21.296;2023-09-30T06:05:06;16.30;99.90
55064;DHT22;40963;52.168;21.296;2023-09-30T06:07:32;16.40;99.90
55064;DHT22;40963;52.168;21.296;2023-09-30T06:09:59;16.40;99.90
55064;DHT22;40963;52.168;21.296;2023-09-30T06:12:28;16.40;99.90
55064;DHT22;40963;52.168;21.296;2023-09-30T06:14:54;16.40;99.90
55064;DHT22;40963;52.168;21.296;2023-09-30T06:17:20;16.40;99.90
55064;DHT22;40963;52.168;21.296;2023-09-30T06:19:47;16.40;99.90
55064;DHT22;40963;52.168;21.296;2023-09-30T06:22:15;16.50;99.90
55064;DHT22;40963;52.168;21.296;2023-09-30T06:24:41;16.50;99.90
55064;DHT22;40963;52.168;21.296;2023-09-30T06:27:07;16.50;99.90
55064;DHT22;40963;52.168;21.296;2023-09-30T06:29:33;16.50;99.90
55064;DHT22;40963;52.168;21.296;2023-09-30T06:31:59;16.50;99.90
55064;DHT22;40963;52.168;21.296;2023-09-30T06:34:24;16.50;99.90
55064;DHT22;40963;52.168;21.296;2023-09-30T06:36:50;16.50;99.90
55064;DHT22;40963;52.168;21.296;2023-09-30T06:39:18;16.50;99.90
55064;DHT22;40963;52.168;21.296;2023-09-30T06:41:44;16.40;99.90
55064;DHT22;40963;52.168;21.296;2023-09-30T06:44:11;16.40;99.90
55064;DHT22;40963;52.168;21.296;2023-09-30T06:46:38;16.40;99.90
55064;DHT22;40963;52.168;21.296;2023-09-30T06:49:04;16.40;99.90
55064;DHT22;40963;52.168;21.296;2023-09-30T06:51:30;16.40;99.90
55064;DHT22;40963;52.168;21.296;2023-09-30T06:53:56;16.40;99.90
55064;DHT22;40963;52.168;21.296;2023-09-30T06:56:22;16.50;99.90
55064;DHT22;40963;52.168;21.296;2023-09-30T06:58:47;16.40;99.90
55064;DHT22;40963;52.168;21.296;2023-09-30T07:01:16;16.50;99.90
55064;DHT22;40963;52.168;21.296;2023-09-30T07:03:43;16.50;99.90
55064;DHT22;40963;52.168;21.296;2023-09-30T07:06:08;16.40;99.90
55064;DHT22;40963;52.168;21.296;2023-09-30T07:08:34;16.40;99.90
55064;DHT22;40963;52.168;21.296;2023-09-30T07:11:00;16.40;99.90
55064;DHT22;40963;52.168;21.296;2023-09-30T07:13:25;16.40;99.90
55064;DHT22;40963;52.168;21.296;2023-09-30T07:15:51;16.40;99.90
55064;DHT22;40963;52.168;21.296;2023-09-30T07:18:17;16.50;99.90
55064;DHT22;40963;52.168;21.296;2023-09-30T07:20:43;16.50;99.90
55064;DHT22;40963;52.168;21.296;2023-09-30T07:23:09;16.50;99.90
55064;DHT22;40963;52.168;21.296;2023-09-30T07:25:34;16.50;99.90
55064;DHT22;40963;52.168;21.296;2023-09-30T07:28:01;16.50;99.90
55064;DHT22;40963;52.168;21.296;2023-09-30T07:30:26;16.50;99.90
55064;DHT22;40963;52.168;21.296;2023-09-30T07:32:52;16.50;99.90
55064;DHT22;40963;52.168;21.296;2023-09-30T07:35:18;16.50;99.90
55064;DHT22;40963;52.168;21.296;2023-09-30T07:37:44;16.60;99.90
55064;DHT22;40963;52.168;21.296;2023-09-30T07:40:10;16.60;99.90
55064;DHT22;40963;52.168;21.296;2023-09-30T07:42:36;16.60;99.90
55064;DHT22;40963;52.168;21.296;2023-09-30T07:45:03;16.60;99.90
55064;DHT22;40963;52.168;21.296;2023-09-30T07:47:30;16.50;99.90
55064;DHT22;40963;52.168;21.296;2023-09-30T07:50:03;16.60;99.90
55064;DHT22;40963;52.168;21.296;2023-09-30T07:52:35;16.50;99.90
55064;DHT22;40963;52.168;21.296;2023-09-30T07:55:01;16.50;99.90
55064;DHT22;40963;52.168;21.296;2023-09-30T07:57:26;16.50;99.90
55064;DHT22;40963;52.168;21.296;2023-09-30T07:59:52;16.50;99.90
55064;DHT22;40963;52.168;21.296;2023-09-30T08:02:18;16.60;99.90
55064;DHT22;40963;52.168;21.296;2023-09-30T08:04:43;16.60;99.90
55064;DHT22;40963;52.168;21.296;2023-09-30T08:07:09;16.60;99.90
55064;DHT22;40963;52.168;21.296;2023-09-30T08:09:35;16.60;99.90
55064;DHT22;40963;52.168;21.296;2023-09-30T08:12:00;16.60;99.90
55064;DHT22;40963;52.168;21.296;2023-09-30T08:14:26;16.60;99.90
55064;DHT22;40963;52.168;21.296;2023-09-30T08:16:52;16.60;99.90
55064;DHT22;40963;52.168;21.296;2023-09-30T08:19:17;16.60;99.90
55064;DHT22;40963;52.168;21.296;2023-09-30T08:21:43;16.60;99.90
55064;DHT22;40963;52.168;21.296;2023-09-30T08:24:10;16.70;99.90
55064;DHT22;40963;52.168;21.296;2023-09-30T08:26:35;16.70;99.90
55064;DHT22;40963;52.168;21.296;2023-09-30T08:29:01;16.70;99.90
55064;DHT22;40963;52.168;21.296;2023-09-30T08:31:27;16.70;99.90
55064;DHT22;40963;52.168;21.296;2023-09-30T08:33:53;16.80;99.90
55064;DHT22;40963;52.168;21.296;2023-09-30T08:36:19;16.90;99.90
55064;DHT22;40963;52.168;21.296;2023-09-30T08:38:44;16.90;99.90
55064;DHT22;40963;52.168;21.296;2023-09-30T08:41:10;16.90;99.90
55064;DHT22;40963;52.168;21.296;2023-09-30T08:43:40;16.90;99.90
55064;DHT22;40963;52.168;21.296;2023-09-30T08:46:06;17.00;99.90
55064;DHT22;40963;52.168;21.296;2023-09-30T08:48:32;17.00;99.90
55064;DHT22;40963;52.168;21.296;2023-09-30T08:50:59;17.00;99.90
55064;DHT22;40963;52.168;21.296;2023-09-30T08:53:25;17.00;99.90
55064;DHT22;40963;52.168;21.296;2023-09-30T08:55:55;17.10;99.90
55064;DHT22;40963;52.168;21.296;2023-09-30T08:58:26;17.20;99.90
55064;DHT22;40963;52.168;21.296;2023-09-30T09:00:52;17.20;99.90
55064;DHT22;40963;52.168;21.296;2023-09-30T09:03:19;17.20;99.90
55064;DHT22;40963;52.168;21.296;2023-09-30T09:05:45;17.20;99.90
55064;DHT22;40963;52.168;21.296;2023-09-30T09:08:11;17.20;99.90
55064;DHT22;40963;52.168;21.296;2023-09-30T09:10:56;17.30;99.90
55064;DHT22;40963;52.168;21.296;2023-09-30T09:13:23;17.30;99.90
55064;DHT22;40963;52.168;21.296;2023-09-30T09:15:49;17.30;99.90
55064;DHT22;40963;52.168;21.296;2023-09-30T09:18:40;17.30;99.90
55064;DHT22;40963;52.168;21.296;2023-09-30T09:21:17;17.30;99.90
55064;DHT22;40963;52.168;21.296;2023-09-30T09:23:46;17.30;99.90
55064;DHT22;40963;52.168;21.296;2023-09-30T09:26:25;17.30;99.90
55064;DHT22;40963;52.168;21.296;2023-09-30T09:28:57;17.40;99.90
55064;DHT22;40963;52.168;21.296;2023-09-30T09:31:24;17.40;99.90
55064;DHT22;40963;52.168;21.296;2023-09-30T09:33:53;17.40;99.90
55064;DHT22;40963;52.168;21.296;2023-09-30T09:36:19;17.40;99.90
55064;DHT22;40963;52.168;21.296;2023-09-30T09:38:47;17.40;99.90
55064;DHT22;40963;52.168;21.296;2023-09-30T09:41:14;17.50;99.90
55064;DHT22;40963;52.168;21.296;2023-09-30T09:43:43;17.40;99.90
55064;DHT22;40963;52.168;21.296;2023-09-30T09:46:10;17.40;99.90
55064;DHT22;40963;52.168;21.296;2023-09-30T09:48:37;17.40;99.90
55064;DHT22;40963;52.168;21.296;2023-09-30T09:51:04;17.50;99.90
55064;DHT22;40963;52.168;21.296;2023-09-30T09:53:36;17.50;99.90
55064;DHT22;40963;52.168;21.296;2023-09-30T09:56:03;17.50;99.90
55064;DHT22;40963;52.168;21.296;2023-09-30T09:58:33;17.50;99.90
55064;DHT22;40963;52.168;21.296;2023-09-30T10:01:01;17.50;99.90
55064;DHT22;40963;52.168;21.296;2023-09-30T10:03:27;17.50;99.90
55064;DHT22;40963;52.168;21.296;2023-09-30T10:05:53;17.50;99.90
55064;DHT22;40963;52.168;21.296;2023-09-30T10:08:21;17.50;99.90
55064;DHT22;40963;52.168;21.296;2023-09-30T10:10:48;17.50;99.90
55064;DHT22;40963;52.168;21.296;2023-09-30T10:13:52;17.60;99.90
55064;DHT22;40963;52.168;21.296;2023-09-30T10:19:18;17.50;99.90
55064;DHT22;40963;52.168;21.296;2023-09-30T10:24:41;17.50;99.90
55064;DHT22;40963;52.168;21.296;2023-09-30T10:40:51;17.50;99.90
55064;DHT22;40963;52.168;21.296;2023-09-30T10:43:30;17.50;99.90
55064;DHT22;40963;52.168;21.296;2023-09-30T10:48:46;17.50;99.90
55064;DHT22;40963;52.168;21.296;2023-09-30T10:51:18;17.50;99.90
55064;DHT22;40963;52.168;21.296;2023-09-30T10:53:51;17.40;99.90
55064;DHT22;40963;52.168;21.296;2023-09-30T10:56:19;17.40;99.90
55064;DHT22;40963;52.168;21.296;2023-09-30T10:58:49;17.40;99.90
55064;DHT22;40963;52.168;21.296;2023-09-30T11:01:17;17.40;99.90
55064;DHT22;40963;52.168;21.296;2023-09-30T11:03:44;17.40;99.90
55064;DHT22;40963;52.168;21.296;2023-09-30T11:06:16;17.40;99.90
55064;DHT22;40963;52.168;21.296;2023-09-30T11:09:01;17.30;99.90
55064;DHT22;40963;52.168;21.296;2023-09-30T11:11:39;17.30;99.90
55064;DHT22;40963;52.168;21.296;2023-09-30T11:16:51;17.20;99.90
55064;DHT22;40963;52.168;21.296;2023-09-30T11:19:17;17.20;99.90
55064;DHT22;40963;52.168;21.296;2023-09-30T11:21:43;17.20;99.90
55064;DHT22;40963;52.168;21.296;2023-09-30T11:24:09;17.20;99.90
55064;DHT22;40963;52.168;21.296;2023-09-30T11:26:35;17.20;99.90
55064;DHT22;40963;52.168;21.296;2023-09-30T11:29:15;17.10;99.90
55064;DHT22;40963;52.168;21.296;2023-09-30T11:31:45;17.10;99.90
55064;DHT22;40963;52.168;21.296;2023-09-30T11:34:12;17.00;99.90
55064;DHT22;40963;52.168;21.296;2023-09-30T11:36:48;16.90;99.90
55064;DHT22;40963;52.168;21.296;2023-09-30T11:39:22;16.90;99.90
55064;DHT22;40963;52.168;21.296;2023-09-30T11:41:49;16.80;99.90
55064;DHT22;40963;52.168;21.296;2023-09-30T11:44:15;16.70;99.90
55064;DHT22;40963;52.168;21.296;2023-09-30T11:46:53;16.70;99.90
55064;DHT22;40963;52.168;21.296;2023-09-30T11:49:26;16.60;99.90
55064;DHT22;40963;52.168;21.296;2023-09-30T11:51:53;16.50;99.90
55064;DHT22;40963;52.168;21.296;2023-09-30T11:54:18;16.50;99.90
55064;DHT22;40963;52.168;21.296;2023-09-30T11:56:44;16.40;99.90
55064;DHT22;40963;52.168;21.296;2023-09-30T11:59:10;16.50;99.90
55064;DHT22;40963;52.168;21.296;2023-09-30T12:01:39;16.40;99.90
55064;DHT22;40963;52.168;21.296;2023-09-30T12:04:05;16.40;99.90
55064;DHT22;40963;52.168;21.296;2023-09-30T12:06:32;16.40;99.90
55064;DHT22;40963;52.168;21.296;2023-09-30T12:08:59;16.40;99.90
55064;DHT22;40963;52.168;21.296;2023-09-30T12:11:25;16.40;99.90
55064;DHT22;40963;52.168;21.296;2023-09-30T12:13:51;16.40;99.90
55064;DHT22;40963;52.168;21.296;2023-09-30T12:16:17;16.40;99.90
55064;DHT22;40963;52.168;21.296;2023-09-30T12:18:43;16.40;99.90
55064;DHT22;40963;52.168;21.296;2023-09-30T12:21:10;16.40;99.90
55064;DHT22;40963;52.168;21.296;2023-09-30T12:23:36;16.30;99.90
55064;DHT22;40963;52.168;21.296;2023-09-30T12:26:02;16.30;99.90
55064;DHT22;40963;52.168;21.296;2023-09-30T12:28:33;16.30;99.90
55064;DHT22;40963;52.168;21.296;2023-09-30T12:31:00;16.30;99.90
55064;DHT22;40963;52.168;21.296;2023-09-30T12:33:32;16.30;99.90
55064;DHT22;40963;52.168;21.296;2023-09-30T12:35:59;16.40;99.90
55064;DHT22;40963;52.168;21.296;2023-09-30T12:38:25;16.40;99.90
55064;DHT22;40963;52.168;21.296;2023-09-30T12:40:52;16.40;99.90
55064;DHT22;40963;52.168;21.296;2023-09-30T12:43:18;16.40;99.90
55064;DHT22;40963;52.168;21.296;2023-09-30T12:45:45;16.40;99.90
55064;DHT22;40963;52.168;21.296;2023-09-30T12:48:11;16.40;99.90
55064;DHT22;40963;52.168;21.296;2023-09-30T12:50:36;16.40;99.90
55064;DHT22;40963;52.168;21.296;2023-09-30T12:53:02;16.40;99.90
55064;DHT22;40963;52.168;21.296;2023-09-30T12:55:28;16.30;99.90
55064;DHT22;40963;52.168;21.296;2023-09-30T12:57:54;16.40;99.90
55064;DHT22;40963;52.168;21.296;2023-09-30T13:00:19;16.30;99.90
55064;DHT22;40963;52.168;21.296;2023-09-30T13:02:47;16.40;99.90
55064;DHT22;40963;52.168;21.296;2023-09-30T13:05:14;16.40;99.90
55064;DHT22;40963;52.168;21.296;2023-09-30T13:07:40;16.40;99.90
55064;DHT22;40963;52.168;21.296;2023-09-30T13:10:06;16.50;99.90
55064;DHT22;40963;52.168;21.296;2023-09-30T13:12:33;16.50;99.90
55064;DHT22;40963;52.168;21.296;2023-09-30T13:14:59;16.60;99.90
55064;DHT22;40963;52.168;21.296;2023-09-30T13:17:25;16.60;99.90
55064;DHT22;40963;52.168;21.296;2023-09-30T13:19:51;16.70;99.90
55064;DHT22;40963;52.168;21.296;2023-09-30T13:22:17;16.80;99.90
55064;DHT22;40963;52.168;21.296;2023-09-30T13:24:43;16.90;99.90
55064;DHT22;40963;52.168;21.296;2023-09-30T13:27:09;17.00;99.90
55064;DHT22;40963;52.168;21.296;2023-09-30T13:29:34;17.00;99.90
55064;DHT22;40963;52.168;21.296;2023-09-30T13:32:01;17.10;99.90
55064;DHT22;40963;52.168;21.296;2023-09-30T13:34:27;17.20;99.90
55064;DHT22;40963;52.168;21.296;2023-09-30T13:36:54;17.20;99.90
55064;DHT22;40963;52.168;21.296;2023-09-30T13:39:20;17.20;99.90
55064;DHT22;40963;52.168;21.296;2023-09-30T13:41:46;17.20;99.90
55064;DHT22;40963;52.168;21.296;2023-09-30T13:44:15;17.20;99.90
55064;DHT22;40963;52.168;21.296;2023-09-30T13:46:41;17.30;99.90
55064;DHT22;40963;52.168;21.296;2023-09-30T13:49:08;17.30;99.90
55064;DHT22;40963;52.168;21.296;2023-09-30T13:51:33;17.40;99.90
55064;DHT22;40963;52.168;21.296;2023-09-30T13:53:59;17.40;99.90
55064;DHT22;40963;52.168;21.296;2023-09-30T13:56:25;17.50;99.90
55064;DHT22;40963;52.168;21.296;2023-09-30T13:58:51;17.50;99.90
55064;DHT22;40963;52.168;21.296;2023-09-30T14:01:17;17.60;99.90
55064;DHT22;40963;52.168;21.296;2023-09-30T14:03:45;17.60;99.90
55064;DHT22;40963;52.168;21.296;2023-09-30T14:06:13;17.60;99.90
55064;DHT22;40963;52.168;21.296;2023-09-30T14:08:39;17.60;99.90
55064;DHT22;40963;52.168;21.296;2023-09-30T14:11:04;17.70;99.90
55064;DHT22;40963;52.168;21.296;2023-09-30T14:13:30;17.70;99.90
55064;DHT22;40963;52.168;21.296;2023-09-30T14:15:56;17.80;99.90
55064;DHT22;40963;52.168;21.296;2023-09-30T14:18:22;17.80;99.90
55064;DHT22;40963;52.168;21.296;2023-09-30T14:20:48;17.90;99.90
55064;DHT22;40963;52.168;21.296;2023-09-30T14:23:13;18.00;99.90
55064;DHT22;40963;52.168;21.296;2023-09-30T14:25:39;18.00;99.90
55064;DHT22;40963;52.168;21.296;2023-09-30T14:28:05;18.00;99.90
55064;DHT22;40963;52.168;21.296;2023-09-30T14:30:31;18.00;99.90
55064;DHT22;40963;52.168;21.296;2023-09-30T14:32:57;18.00;99.90
55064;DHT22;40963;52.168;21.296;2023-09-30T14:35:23;18.00;99.90
55064;DHT22;40963;52.168;21.296;2023-09-30T14:37:49;17.90;99.90
55064;DHT22;40963;52.168;21.296;2023-09-30T14:40:14;18.00;99.90
55064;DHT22;40963;52.168;21.296;2023-09-30T14:42:41;17.90;99.90
55064;DHT22;40963;52.168;21.296;2023-09-30T14:45:08;17.90;99.90
55064;DHT22;40963;52.168;21.296;2023-09-30T14:47:33;17.80;99.90
55064;DHT22;40963;52.168;21.296;2023-09-30T14:49:59;17.80;99.90
55064;DHT22;40963;52.168;21.296;2023-09-30T14:52:27;17.80;99.90
55064;DHT22;40963;52.168;21.296;2023-09-30T14:54:53;17.80;99.90
55064;DHT22;40963;52.168;21.296;2023-09-30T14:57:19;17.70;99.90
55064;DHT22;40963;52.168;21.296;2023-09-30T14:59:46;17.60;99.90
55064;DHT22;40963;52.168;21.296;2023-09-30T15:02:12;17.60;99.90
55064;DHT22;40963;52.168;21.296;2023-09-30T15:04:37;17.50;99.90
55064;DHT22;40963;52.168;21.296;2023-09-30T15:07:03;17.50;99.90
55064;DHT22;40963;52.168;21.296;2023-09-30T15:09:29;17.40;99.90
55064;DHT22;40963;52.168;21.296;2023-09-30T15:11:54;17.40;99.90
55064;DHT22;40963;52.168;21.296;2023-09-30T15:14:20;17.30;99.90
55064;DHT22;40963;52.168;21.296;2023-09-30T15:16:46;17.30;99.90
55064;DHT22;40963;52.168;21.296;2023-09-30T15:19:12;17.30;99.90
55064;DHT22;40963;52.168;21.296;2023-09-30T15:21:38;17.30;99.90
55064;DHT22;40963;52.168;21.296;2023-09-30T15:24:04;17.20;99.80
55064;DHT22;40963;52.168;21.296;2023-09-30T15:26:30;17.20;99.60
55064;DHT22;40963;52.168;21.296;2023-09-30T15:28:56;17.10;99.50
55064;DHT22;40963;52.168;21.296;2023-09-30T15:31:29;17.10;99.90
55064;DHT22;40963;52.168;21.296;2023-09-30T15:33:56;17.10;99.90
55064;DHT22;40963;52.168;21.296;2023-09-30T15:36:22;17.10;99.90
55064;DHT22;40963;52.168;21.296;2023-09-30T15:38:48;17.10;99.90